ADDS METAR Data INFO
IDs: Format: Raw Decoded Include TAF

Data at: 2002 UTC 19 Oct 2017

KWWD 191955Z AUTO 19007KT 10SM CLR 22/11 A3017 RMK AO2 SLP220 T02170111
KWWD 191855Z AUTO 26007KT 10SM CLR 21/11 A3020 RMK AO2 SLP228 T02110111
KWWD 191755Z AUTO 24009KT 10SM CLR 20/11 A3022 RMK AO2 SLP236 T02000111 10200 20083 58024
KWWD 191655Z AUTO 25006KT 10SM CLR 19/11 A3025 RMK AO2 SLP247 T01890111
KWWD 191555Z AUTO 25008KT 10SM CLR 19/12 A3028 RMK AO2 SLP256 T01890117
KWWD 191455Z AUTO 24008KT 10SM CLR 18/12 A3029 RMK AO2 SLP261 T01830117 50000
KWWD 191355Z AUTO 22008KT 10SM CLR 18/12 A3030 RMK AO2 SLP262 T01780117
KWWD 191255Z AUTO 00000KT 10SM CLR 14/12 A3030 RMK AO2 SLP264 T01390117
KWWD 191155Z AUTO 00000KT 10SM CLR 08/07 A3029 RMK AO2 SLP261 T00830072 10094 20072 54000
KWWD 191143Z AUTO 00000KT 10SM CLR 08/07 A3029 RMK AO2
KWWD 191135Z AUTO 00000KT 2 1/2SM BR CLR 08/07 A3029 RMK AO2
KWWD 191055Z AUTO 00000KT 6SM BR CLR 08/07 A3029 RMK AO2 SLP260 T00780072
KWWD 190955Z AUTO 00000KT 10SM CLR 08/08 A3030 RMK AO2 SLP262 T00830078
KWWD 190855Z AUTO 00000KT 10SM CLR 08/07 A3029 RMK AO2 SLP261 T00830072 55007
KWWD 190755Z AUTO 00000KT 10SM CLR 09/08 A3029 RMK AO2 SLP259 T00890078
KWWD 190655Z AUTO 00000KT 10SM CLR 09/08 A3030 RMK AO2 SLP263 T00890078
KWWD 190555Z AUTO 00000KT 10SM CLR 09/08 A3031 RMK AO2 SLP267 T00940083 10144 20089 58007
KWWD 190455Z AUTO 00000KT 10SM CLR 09/08 A3032 RMK AO2 SLP271 T00940083
KWWD 190355Z AUTO 00000KT 10SM CLR 10/08 A3032 RMK AO2 SLP271 T01000083 402060050
KWWD 190255Z AUTO 00000KT 10SM CLR 11/09 A3033 RMK AO2 SLP274 T01060094 50003
KWWD 190155Z AUTO 00000KT 10SM CLR 12/10 A3034 RMK AO2 SLP277 T01170100
KWWD 190055Z AUTO 00000KT 10SM CLR 13/11 A3033 RMK AO2 SLP273 T01280106
KWWD 182355Z AUTO 00000KT 10SM CLR 13/11 A3032 RMK AO2 SLP271 T01330106 10206 20133 53004
KWWD 182255Z AUTO 16004KT 10SM CLR 14/11 A3032 RMK AO2 SLP269 T01440106
KWWD 182155Z AUTO 17005KT 10SM CLR 18/10 A3031 RMK AO2 SLP265 T01780100
KWWD 182055Z AUTO 17008KT 10SM CLR 20/08 A3031 RMK AO2 SLP267 T02000083 57010
KWWD 181955Z AUTO 26004KT 10SM CLR 20/07 A3032 RMK AO2 SLP271 T02000067
KWWD 181855Z AUTO 24009KT 10SM CLR 20/07 A3033 RMK AO2 SLP273 T02000072
KWWD 181755Z AUTO 23009KT 10SM CLR 19/07 A3034 RMK AO2 SLP277 T01890067 10189 20067 58014
KWWD 181655Z AUTO 27009KT 10SM CLR 18/08 A3037 RMK AO2 SLP285 T01830078
KWWD 181555Z AUTO 25009KT 10SM CLR 17/07 A3038 RMK AO2 SLP291 T01720072
KWWD 181455Z AUTO 27009KT 10SM CLR 16/08 A3038 RMK AO2 SLP290 T01610078 50003
KWWD 181355Z AUTO 30007KT 10SM CLR 15/08 A3038 RMK AO2 SLP291 T01500083
KWWD 181255Z AUTO 28005KT 10SM CLR 13/09 A3038 RMK AO2 SLP291 T01330094
KWWD 181155Z AUTO 00000KT 10SM CLR 07/06 A3037 RMK AO2 SLP287 T00670056 10067 20050 53010
KWWD 181055Z AUTO 00000KT 10SM CLR 06/04 A3036 RMK AO2 SLP283 T00560039
KWWD 180955Z AUTO 00000KT 10SM CLR 06/04 A3035 RMK AO2 SLP280 T00560044
KWWD 180855Z AUTO 00000KT 10SM CLR 06/04 A3034 RMK AO2 SLP277 T00560044 53003